sensor_id;sensor_type;location;lat;lon;timestamp;pressure;altitude;pressure_sealevel;temperature;humidity
70229;BME280;57617;51.988;5.854;2023-03-15T00:00:43;100702.50;;;6.84;62.49
70229;BME280;57617;51.988;5.854;2023-03-15T00:03:10;100701.13;;;6.69;62.70
70229;BME280;57617;51.988;5.854;2023-03-15T00:05:35;100705.25;;;6.71;63.34
70229;BME280;57617;51.988;5.854;2023-03-15T00:08:01;100707.56;;;6.68;63.27
70229;BME280;57617;51.988;5.854;2023-03-15T00:10:27;100700.81;;;6.52;63.41
70229;BME280;57617;51.988;5.854;2023-03-15T00:12:53;100712.66;;;6.51;63.99
70229;BME280;57617;51.988;5.854;2023-03-15T00:15:18;100706.00;;;6.54;63.94
70229;BME280;57617;51.988;5.854;2023-03-15T00:17:44;100703.09;;;6.55;64.32
70229;BME280;57617;51.988;5.854;2023-03-15T00:20:10;100706.38;;;6.57;64.64
70229;BME280;57617;51.988;5.854;2023-03-15T00:22:36;100696.66;;;6.56;63.24
70229;BME280;57617;51.988;5.854;2023-03-15T00:25:01;100691.91;;;6.52;64.02
70229;BME280;57617;51.988;5.854;2023-03-15T00:27:26;100698.75;;;6.54;63.59
70229;BME280;57617;51.988;5.854;2023-03-15T00:29:51;100709.38;;;6.49;64.17
70229;BME280;57617;51.988;5.854;2023-03-15T00:32:17;100708.91;;;6.52;63.72
70229;BME280;57617;51.988;5.854;2023-03-15T00:34:42;100711.84;;;6.51;64.56
70229;BME280;57617;51.988;5.854;2023-03-15T00:37:15;100712.06;;;6.49;64.32
70229;BME280;57617;51.988;5.854;2023-03-15T00:39:41;100711.59;;;6.52;63.95
70229;BME280;57617;51.988;5.854;2023-03-15T00:42:10;100712.06;;;6.49;64.46
70229;BME280;57617;51.988;5.854;2023-03-15T00:44:35;100709.00;;;6.39;64.85
70229;BME280;57617;51.988;5.854;2023-03-15T00:47:00;100713.16;;;6.35;64.57
70229;BME280;57617;51.988;5.854;2023-03-15T00:49:26;100716.50;;;6.37;64.77
70229;BME280;57617;51.988;5.854;2023-03-15T00:51:54;100713.56;;;6.39;64.74
70229;BME280;57617;51.988;5.854;2023-03-15T00:54:19;100711.91;;;6.38;65.37
70229;BME280;57617;51.988;5.854;2023-03-15T00:56:48;100716.44;;;6.44;65.13
70229;BME280;57617;51.988;5.854;2023-03-15T00:59:13;100718.09;;;6.45;65.31
70229;BME280;57617;51.988;5.854;2023-03-15T01:01:38;100722.66;;;6.51;65.74
70229;BME280;57617;51.988;5.854;2023-03-15T01:04:09;100721.97;;;6.55;65.51
70229;BME280;57617;51.988;5.854;2023-03-15T01:06:36;100723.44;;;6.51;65.36
70229;BME280;57617;51.988;5.854;2023-03-15T01:09:02;100716.78;;;6.54;64.90
70229;BME280;57617;51.988;5.854;2023-03-15T01:11:28;100724.28;;;6.52;65.23
70229;BME280;57617;51.988;5.854;2023-03-15T01:13:55;100730.47;;;6.59;65.08
70229;BME280;57617;51.988;5.854;2023-03-15T01:16:21;100737.31;;;6.61;64.64
70229;BME280;57617;51.988;5.854;2023-03-15T01:18:47;100739.78;;;6.63;64.99
70229;BME280;57617;51.988;5.854;2023-03-15T01:21:13;100742.47;;;6.63;65.14
70229;BME280;57617;51.988;5.854;2023-03-15T01:23:39;100743.53;;;6.62;64.80
70229;BME280;57617;51.988;5.854;2023-03-15T01:26:06;100745.00;;;6.58;65.23
70229;BME280;57617;51.988;5.854;2023-03-15T01:28:33;100750.19;;;6.59;64.95
70229;BME280;57617;51.988;5.854;2023-03-15T01:30:58;100748.31;;;6.60;65.28
70229;BME280;57617;51.988;5.854;2023-03-15T01:33:23;100753.94;;;6.58;65.55
70229;BME280;57617;51.988;5.854;2023-03-15T01:36:00;100754.78;;;6.52;66.16
70229;BME280;57617;51.988;5.854;2023-03-15T01:38:26;100765.16;;;6.55;65.47
70229;BME280;57617;51.988;5.854;2023-03-15T01:40:51;100766.59;;;6.58;65.96
70229;BME280;57617;51.988;5.854;2023-03-15T01:43:18;100770.31;;;6.63;66.14
70229;BME280;57617;51.988;5.854;2023-03-15T01:45:56;100762.44;;;6.62;65.88
70229;BME280;57617;51.988;5.854;2023-03-15T01:48:33;100772.34;;;6.68;65.35
70229;BME280;57617;51.988;5.854;2023-03-15T01:51:01;100774.44;;;6.66;65.39
70229;BME280;57617;51.988;5.854;2023-03-15T01:53:29;100769.69;;;6.61;65.98
70229;BME280;57617;51.988;5.854;2023-03-15T01:55:56;100776.97;;;6.61;65.04
70229;BME280;57617;51.988;5.854;2023-03-15T01:58:25;100774.91;;;6.56;65.92
70229;BME280;57617;51.988;5.854;2023-03-15T02:00:51;100781.94;;;6.57;65.76
70229;BME280;57617;51.988;5.854;2023-03-15T02:03:23;100779.69;;;6.54;65.86
70229;BME280;57617;51.988;5.854;2023-03-15T02:05:56;100782.41;;;6.48;66.37
70229;BME280;57617;51.988;5.854;2023-03-15T02:08:26;100783.66;;;6.45;65.82
70229;BME280;57617;51.988;5.854;2023-03-15T02:10:55;100791.56;;;6.40;66.21
70229;BME280;57617;51.988;5.854;2023-03-15T02:13:24;100792.63;;;6.39;65.88
70229;BME280;57617;51.988;5.854;2023-03-15T02:15:51;100781.66;;;6.34;66.42
70229;BME280;57617;51.988;5.854;2023-03-15T02:18:17;100788.69;;;6.35;65.88
70229;BME280;57617;51.988;5.854;2023-03-15T02:20:46;100788.69;;;6.35;66.79
70229;BME280;57617;51.988;5.854;2023-03-15T02:23:17;100784.34;;;6.34;66.30
70229;BME280;57617;51.988;5.854;2023-03-15T02:28:19;100795.78;;;6.30;66.85
70229;BME280;57617;51.988;5.854;2023-03-15T02:30:45;100797.66;;;6.29;66.56
70229;BME280;57617;51.988;5.854;2023-03-15T02:33:27;100799.94;;;6.32;67.83
70229;BME280;57617;51.988;5.854;2023-03-15T02:35:54;100795.16;;;6.28;66.61
70229;BME280;57617;51.988;5.854;2023-03-15T02:38:20;100811.72;;;6.31;66.41
70229;BME280;57617;51.988;5.854;2023-03-15T02:40:46;100813.41;;;6.32;66.90
70229;BME280;57617;51.988;5.854;2023-03-15T02:43:16;100814.66;;;6.30;66.44
70229;BME280;57617;51.988;5.854;2023-03-15T02:45:44;100803.25;;;6.28;66.26
70229;BME280;57617;51.988;5.854;2023-03-15T02:48:10;100813.03;;;6.22;67.18
70229;BME280;57617;51.988;5.854;2023-03-15T02:50:36;100812.59;;;6.19;66.71
70229;BME280;57617;51.988;5.854;2023-03-15T02:53:02;100824.03;;;6.21;66.70
70229;BME280;57617;51.988;5.854;2023-03-15T02:55:28;100816.75;;;6.21;66.96
70229;BME280;57617;51.988;5.854;2023-03-15T02:57:53;100828.78;;;6.25;66.92
70229;BME280;57617;51.988;5.854;2023-03-15T03:00:18;100830.41;;;6.26;66.63
70229;BME280;57617;51.988;5.854;2023-03-15T03:02:46;100833.56;;;6.23;66.91
70229;BME280;57617;51.988;5.854;2023-03-15T03:05:13;100835.00;;;6.26;66.95
70229;BME280;57617;51.988;5.854;2023-03-15T03:07:39;100845.59;;;6.27;66.91
70229;BME280;57617;51.988;5.854;2023-03-15T03:10:10;100844.75;;;6.27;67.42
70229;BME280;57617;51.988;5.854;2023-03-15T03:12:35;100849.72;;;6.30;66.36
70229;BME280;57617;51.988;5.854;2023-03-15T03:15:01;100853.88;;;6.32;67.23
70229;BME280;57617;51.988;5.854;2023-03-15T03:17:27;100859.25;;;6.32;66.27
70229;BME280;57617;51.988;5.854;2023-03-15T03:19:53;100855.94;;;6.30;66.69
70229;BME280;57617;51.988;5.854;2023-03-15T03:22:18;100864.47;;;6.27;66.19
70229;BME280;57617;51.988;5.854;2023-03-15T03:24:44;100870.06;;;6.26;66.45
70229;BME280;57617;51.988;5.854;2023-03-15T03:27:11;100880.84;;;6.26;66.63
70229;BME280;57617;51.988;5.854;2023-03-15T03:29:39;100872.34;;;6.22;66.91
70229;BME280;57617;51.988;5.854;2023-03-15T03:32:04;100885.41;;;6.25;66.93
70229;BME280;57617;51.988;5.854;2023-03-15T03:34:30;100890.41;;;6.22;66.83
70229;BME280;57617;51.988;5.854;2023-03-15T03:36:56;100895.59;;;6.17;66.80
70229;BME280;57617;51.988;5.854;2023-03-15T03:39:22;100857.69;;;5.92;67.01
70229;BME280;57617;51.988;5.854;2023-03-15T03:41:47;100907.41;;;6.16;66.89
70229;BME280;57617;51.988;5.854;2023-03-15T03:44:12;100887.09;;;6.13;67.46
70229;BME280;57617;51.988;5.854;2023-03-15T03:46:38;100910.94;;;6.16;66.77
70229;BME280;57617;51.988;5.854;2023-03-15T03:49:03;100913.22;;;6.06;66.56
70229;BME280;57617;51.988;5.854;2023-03-15T03:51:28;100917.81;;;5.99;67.19
70229;BME280;57617;51.988;5.854;2023-03-15T03:53:54;100924.44;;;5.97;66.60
70229;BME280;57617;51.988;5.854;2023-03-15T03:56:20;100931.06;;;5.94;66.95
70229;BME280;57617;51.988;5.854;2023-03-15T03:58:45;100927.75;;;5.92;67.32
70229;BME280;57617;51.988;5.854;2023-03-15T04:01:10;100927.97;;;5.97;67.03
70229;BME280;57617;51.988;5.854;2023-03-15T04:03:35;100944.34;;;6.02;67.22
70229;BME280;57617;51.988;5.854;2023-03-15T04:06:01;100934.41;;;5.96;67.07
70229;BME280;57617;51.988;5.854;2023-03-15T04:08:26;100945.19;;;5.96;66.70
70229;BME280;57617;51.988;5.854;2023-03-15T04:10:53;100949.31;;;5.92;66.74
70229;BME280;57617;51.988;5.854;2023-03-15T04:13:19;100955.97;;;5.90;66.94
70229;BME280;57617;51.988;5.854;2023-03-15T04:15:45;100957.59;;;5.84;66.51
70229;BME280;57617;51.988;5.854;2023-03-15T04:18:11;100963.44;;;5.81;67.03
70229;BME280;57617;51.988;5.854;2023-03-15T04:20:36;100959.03;;;5.74;66.92
70229;BME280;57617;51.988;5.854;2023-03-15T04:23:02;100963.38;;;5.75;67.03
70229;BME280;57617;51.988;5.854;2023-03-15T04:25:27;100959.84;;;5.74;67.33
70229;BME280;57617;51.988;5.854;2023-03-15T04:27:53;100964.63;;;5.72;66.85
70229;BME280;57617;51.988;5.854;2023-03-15T04:30:28;100973.75;;;5.71;67.19
70229;BME280;57617;51.988;5.854;2023-03-15T04:32:54;100981.59;;;5.73;67.38
70229;BME280;57617;51.988;5.854;2023-03-15T04:35:29;100991.13;;;5.75;67.42
70229;BME280;57617;51.988;5.854;2023-03-15T04:37:55;100985.75;;;5.75;67.14
70229;BME280;57617;51.988;5.854;2023-03-15T04:40:21;100984.09;;;5.74;67.44
70229;BME280;57617;51.988;5.854;2023-03-15T04:42:49;100991.59;;;5.79;67.26
70229;BME280;57617;51.988;5.854;2023-03-15T04:45:15;100997.78;;;5.79;66.73
70229;BME280;57617;51.988;5.854;2023-03-15T04:47:40;101007.94;;;5.77;66.82
70229;BME280;57617;51.988;5.854;2023-03-15T04:50:06;101000.47;;;5.73;67.26
70229;BME280;57617;51.988;5.854;2023-03-15T04:52:31;101000.25;;;5.68;66.58
70229;BME280;57617;51.988;5.854;2023-03-15T04:54:56;101008.56;;;5.66;66.99
70229;BME280;57617;51.988;5.854;2023-03-15T04:57:22;101010.81;;;5.63;67.17
70229;BME280;57617;51.988;5.854;2023-03-15T04:59:47;101011.44;;;5.58;66.90
70229;BME280;57617;51.988;5.854;2023-03-15T05:02:12;101023.25;;;5.57;67.04
70229;BME280;57617;51.988;5.854;2023-03-15T05:04:37;101018.25;;;5.54;67.24
70229;BME280;57617;51.988;5.854;2023-03-15T05:07:03;101021.16;;;5.53;67.21
70229;BME280;57617;51.988;5.854;2023-03-15T05:09:28;101022.19;;;5.52;67.90
70229;BME280;57617;51.988;5.854;2023-03-15T05:11:53;101036.50;;;5.52;67.42
70229;BME280;57617;51.988;5.854;2023-03-15T05:14:19;101043.34;;;5.55;67.10
70229;BME280;57617;51.988;5.854;2023-03-15T05:16:44;101050.16;;;5.51;67.35
70229;BME280;57617;51.988;5.854;2023-03-15T05:19:12;101055.72;;;5.49;67.24
70229;BME280;57617;51.988;5.854;2023-03-15T05:21:37;101056.56;;;5.50;67.18
70229;BME280;57617;51.988;5.854;2023-03-15T05:24:02;101058.66;;;5.48;67.35
70229;BME280;57617;51.988;5.854;2023-03-15T05:26:28;101068.16;;;5.44;67.24
70229;BME280;57617;51.988;5.854;2023-03-15T05:28:53;101069.41;;;5.41;67.39
70229;BME280;57617;51.988;5.854;2023-03-15T05:31:18;101069.78;;;5.38;67.20
70229;BME280;57617;51.988;5.854;2023-03-15T05:33:44;101077.44;;;5.35;67.16
70229;BME280;57617;51.988;5.854;2023-03-15T05:36:13;101077.81;;;5.32;67.25
70229;BME280;57617;51.988;5.854;2023-03-15T05:38:39;101086.94;;;5.31;67.35
70229;BME280;57617;51.988;5.854;2023-03-15T05:41:06;101081.31;;;5.26;67.16
70229;BME280;57617;51.988;5.854;2023-03-15T05:43:32;101084.88;;;5.26;66.92
70229;BME280;57617;51.988;5.854;2023-03-15T05:45:57;101090.00;;;5.21;67.31
70229;BME280;57617;51.988;5.854;2023-03-15T05:48:23;101084.19;;;5.18;67.10
70229;BME280;57617;51.988;5.854;2023-03-15T05:50:48;101067.56;;;5.08;66.98
70229;BME280;57617;51.988;5.854;2023-03-15T05:53:13;101086.44;;;5.14;66.75
70229;BME280;57617;51.988;5.854;2023-03-15T05:55:38;101090.81;;;5.15;67.25
70229;BME280;57617;51.988;5.854;2023-03-15T05:58:04;101094.31;;;5.16;67.13
70229;BME280;57617;51.988;5.854;2023-03-15T06:00:30;101097.19;;;5.14;67.01
70229;BME280;57617;51.988;5.854;2023-03-15T06:02:56;101095.31;;;5.08;66.88
70229;BME280;57617;51.988;5.854;2023-03-15T06:05:21;101102.38;;;5.09;67.22
70229;BME280;57617;51.988;5.854;2023-03-15T06:07:46;101106.06;;;5.08;67.26
70229;BME280;57617;51.988;5.854;2023-03-15T06:10:11;101111.28;;;5.10;67.36
70229;BME280;57617;51.988;5.854;2023-03-15T06:12:38;101117.09;;;5.13;67.11
70229;BME280;57617;51.988;5.854;2023-03-15T06:15:04;101121.44;;;5.14;66.87
70229;BME280;57617;51.988;5.854;2023-03-15T06:17:29;101133.47;;;5.12;67.18
70229;BME280;57617;51.988;5.854;2023-03-15T06:19:55;101137.72;;;5.00;66.19
70229;BME280;57617;51.988;5.854;2023-03-15T06:22:20;101151.31;;;4.92;67.48
70229;BME280;57617;51.988;5.854;2023-03-15T06:24:45;101152.56;;;4.89;67.05
70229;BME280;57617;51.988;5.854;2023-03-15T06:27:11;101142.78;;;4.88;67.39
70229;BME280;57617;51.988;5.854;2023-03-15T06:29:36;101162.91;;;4.92;66.94
70229;BME280;57617;51.988;5.854;2023-03-15T06:32:02;101158.13;;;4.88;67.31
70229;BME280;57617;51.988;5.854;2023-03-15T06:34:27;101155.25;;;4.89;67.71
70229;BME280;57617;51.988;5.854;2023-03-15T06:36:53;101160.88;;;4.94;67.98
70229;BME280;57617;51.988;5.854;2023-03-15T06:39:18;101158.44;;;4.99;67.92
70229;BME280;57617;51.988;5.854;2023-03-15T06:41:44;101151.81;;;5.02;67.96
70229;BME280;57617;51.988;5.854;2023-03-15T06:44:09;101170.44;;;5.03;67.93
70229;BME280;57617;51.988;5.854;2023-03-15T06:46:35;101165.06;;;5.03;67.94
70229;BME280;57617;51.988;5.854;2023-03-15T06:49:00;101171.28;;;5.04;67.86
70229;BME280;57617;51.988;5.854;2023-03-15T06:51:26;101176.47;;;5.05;67.88
70229;BME280;57617;51.988;5.854;2023-03-15T06:53:51;101177.88;;;5.01;67.71
70229;BME280;57617;51.988;5.854;2023-03-15T06:56:16;101193.00;;;5.02;67.92
70229;BME280;57617;51.988;5.854;2023-03-15T06:58:42;101184.56;;;5.05;68.02
70229;BME280;57617;51.988;5.854;2023-03-15T07:01:11;101191.84;;;5.11;68.00
70229;BME280;57617;51.988;5.854;2023-03-15T07:03:36;101200.97;;;5.17;68.03
70229;BME280;57617;51.988;5.854;2023-03-15T07:06:02;101208.47;;;5.21;68.13
70229;BME280;57617;51.988;5.854;2023-03-15T07:08:27;101210.38;;;5.27;67.99
70229;BME280;57617;51.988;5.854;2023-03-15T07:10:52;101211.25;;;5.34;68.11
70229;BME280;57617;51.988;5.854;2023-03-15T07:13:18;101214.66;;;5.43;67.89
70229;BME280;57617;51.988;5.854;2023-03-15T07:15:44;101216.72;;;5.47;67.88
70229;BME280;57617;51.988;5.854;2023-03-15T07:18:09;101220.03;;;5.49;67.84
70229;BME280;57617;51.988;5.854;2023-03-15T07:20:34;101230.03;;;5.55;67.76
70229;BME280;57617;51.988;5.854;2023-03-15T07:22:59;101234.66;;;5.61;67.77
70229;BME280;57617;51.988;5.854;2023-03-15T07:25:25;101237.59;;;5.66;68.19
70229;BME280;57617;51.988;5.854;2023-03-15T07:27:51;101245.06;;;5.71;68.30
70229;BME280;57617;51.988;5.854;2023-03-15T07:30:18;101244.88;;;5.72;68.58
70229;BME280;57617;51.988;5.854;2023-03-15T07:32:44;101242.25;;;5.85;68.15
70229;BME280;57617;51.988;5.854;2023-03-15T07:35:09;101247.88;;;5.90;67.61
70229;BME280;57617;51.988;5.854;2023-03-15T07:37:35;101255.59;;;5.93;68.18
70229;BME280;57617;51.988;5.854;2023-03-15T07:40:00;101251.47;;;5.97;67.95
70229;BME280;57617;51.988;5.854;2023-03-15T07:42:34;101254.16;;;6.04;68.00
70229;BME280;57617;51.988;5.854;2023-03-15T07:45:00;101246.69;;;5.99;68.28
70229;BME280;57617;51.988;5.854;2023-03-15T07:47:25;101264.59;;;6.13;67.98
70229;BME280;57617;51.988;5.854;2023-03-15T07:49:50;101276.00;;;6.15;68.14
70229;BME280;57617;51.988;5.854;2023-03-15T07:52:16;101274.19;;;6.22;68.25
70229;BME280;57617;51.988;5.854;2023-03-15T07:54:41;101275.88;;;6.30;67.85
70229;BME280;57617;51.988;5.854;2023-03-15T07:57:06;101283.78;;;6.38;67.92
70229;BME280;57617;51.988;5.854;2023-03-15T07:59:32;101297.91;;;6.46;67.92
70229;BME280;57617;51.988;5.854;2023-03-15T08:01:57;101295.66;;;6.56;67.62
70229;BME280;57617;51.988;5.854;2023-03-15T08:04:23;101291.13;;;6.63;67.47
70229;BME280;57617;51.988;5.854;2023-03-15T08:06:48;101302.78;;;6.70;67.88
70229;BME280;57617;51.988;5.854;2023-03-15T08:09:13;101301.75;;;6.78;67.82
70229;BME280;57617;51.988;5.854;2023-03-15T08:11:39;101312.81;;;6.89;68.06
70229;BME280;57617;51.988;5.854;2023-03-15T08:14:04;101306.56;;;6.95;67.64
70229;BME280;57617;51.988;5.854;2023-03-15T08:16:30;101308.06;;;7.04;67.05
70229;BME280;57617;51.988;5.854;2023-03-15T08:18:55;101316.38;;;7.09;67.08
70229;BME280;57617;51.988;5.854;2023-03-15T08:21:20;101318.03;;;7.17;67.30
70229;BME280;57617;51.988;5.854;2023-03-15T08:23:46;101317.63;;;7.26;67.21
70229;BME280;57617;51.988;5.854;2023-03-15T08:26:11;101325.50;;;7.34;67.90
70229;BME280;57617;51.988;5.854;2023-03-15T08:28:36;101317.63;;;7.46;67.02
70229;BME280;57617;51.988;5.854;2023-03-15T08:31:06;101321.56;;;7.56;67.52
70229;BME280;57617;51.988;5.854;2023-03-15T08:33:31;101318.25;;;7.61;67.18
70229;BME280;57617;51.988;5.854;2023-03-15T08:35:57;101316.78;;;7.65;65.94
70229;BME280;57617;51.988;5.854;2023-03-15T08:38:22;101317.59;;;7.72;66.21
70229;BME280;57617;51.988;5.854;2023-03-15T08:40:47;101331.97;;;7.79;67.20
70229;BME280;57617;51.988;5.854;2023-03-15T08:43:13;101331.72;;;7.87;66.71
70229;BME280;57617;51.988;5.854;2023-03-15T08:45:38;101339.63;;;7.95;65.87
70229;BME280;57617;51.988;5.854;2023-03-15T08:48:03;101343.34;;;8.00;65.55
70229;BME280;57617;51.988;5.854;2023-03-15T08:50:29;101343.34;;;8.07;64.83
70229;BME280;57617;51.988;5.854;2023-03-15T08:52:56;101355.22;;;8.12;64.75
70229;BME280;57617;51.988;5.854;2023-03-15T08:55:21;101353.72;;;8.16;64.56
70229;BME280;57617;51.988;5.854;2023-03-15T08:57:46;101348.78;;;8.20;64.54
70229;BME280;57617;51.988;5.854;2023-03-15T09:00:12;101360.41;;;8.27;63.67
70229;BME280;57617;51.988;5.854;2023-03-15T09:02:42;101354.53;;;8.36;63.82
70229;BME280;57617;51.988;5.854;2023-03-15T09:05:07;101355.16;;;8.45;63.95
70229;BME280;57617;51.988;5.854;2023-03-15T09:07:37;101361.78;;;8.49;63.75
70229;BME280;57617;51.988;5.854;2023-03-15T09:10:02;101365.72;;;8.53;62.51
70229;BME280;57617;51.988;5.854;2023-03-15T09:12:28;101363.22;;;8.58;62.65
70229;BME280;57617;51.988;5.854;2023-03-15T09:14:54;101367.56;;;8.65;62.91
70229;BME280;57617;51.988;5.854;2023-03-15T09:17:19;101367.75;;;8.70;62.78
70229;BME280;57617;51.988;5.854;2023-03-15T09:19:45;101353.78;;;8.73;62.83
70229;BME280;57617;51.988;5.854;2023-03-15T09:22:10;101369.56;;;8.83;62.77
70229;BME280;57617;51.988;5.854;2023-03-15T09:24:36;101372.63;;;8.93;62.44
70229;BME280;57617;51.988;5.854;2023-03-15T09:27:01;101368.41;;;9.03;62.42
70229;BME280;57617;51.988;5.854;2023-03-15T09:29:27;101373.78;;;9.10;62.10
70229;BME280;57617;51.988;5.854;2023-03-15T09:31:53;101366.03;;;9.13;61.37
70229;BME280;57617;51.988;5.854;2023-03-15T09:34:18;101368.91;;;9.25;61.65
70229;BME280;57617;51.988;5.854;2023-03-15T09:36:44;101368.88;;;9.31;61.36
70229;BME280;57617;51.988;5.854;2023-03-15T09:39:10;101366.31;;;9.36;61.02
70229;BME280;57617;51.988;5.854;2023-03-15T09:41:48;101369.81;;;9.43;59.44
70229;BME280;57617;51.988;5.854;2023-03-15T09:54:51;101371.44;;;9.75;58.69
70229;BME280;57617;51.988;5.854;2023-03-15T09:57:28;101380.78;;;9.79;59.02
70229;BME280;57617;51.988;5.854;2023-03-15T09:59:57;101376.53;;;9.90;58.58
70229;BME280;57617;51.988;5.854;2023-03-15T10:02:27;101387.34;;;9.96;58.41
70229;BME280;57617;51.988;5.854;2023-03-15T10:05:15;101382.88;;;10.02;55.40
70229;BME280;57617;51.988;5.854;2023-03-15T10:07:43;101383.06;;;10.07;58.26
70229;BME280;57617;51.988;5.854;2023-03-15T10:10:16;101372.91;;;10.20;57.67
70229;BME280;57617;51.988;5.854;2023-03-15T10:12:50;101345.06;;;10.07;58.00
70229;BME280;57617;51.988;5.854;2023-03-15T10:18:13;101382.69;;;10.46;55.79
70229;BME280;57617;51.988;5.854;2023-03-15T10:20:47;101370.22;;;10.56;56.84
70229;BME280;57617;51.988;5.854;2023-03-15T10:23:19;101377.38;;;10.69;57.24
70229;BME280;57617;51.988;5.854;2023-03-15T10:25:49;101377.09;;;10.77;56.99
70229;BME280;57617;51.988;5.854;2023-03-15T10:28:29;101379.25;;;10.86;55.29
70229;BME280;57617;51.988;5.854;2023-03-15T10:30:59;101375.09;;;10.84;55.45
70229;BME280;57617;51.988;5.854;2023-03-15T10:33:31;101376.38;;;10.81;53.60
70229;BME280;57617;51.988;5.854;2023-03-15T10:35:58;101370.94;;;10.81;55.01
70229;BME280;57617;51.988;5.854;2023-03-15T10:38:25;101371.09;;;10.86;54.60
70229;BME280;57617;51.988;5.854;2023-03-15T10:40:56;101372.44;;;10.95;53.68
70229;BME280;57617;51.988;5.854;2023-03-15T10:43:23;101373.78;;;11.04;53.70
70229;BME280;57617;51.988;5.854;2023-03-15T10:48:27;101377.97;;;11.18;53.30
70229;BME280;57617;51.988;5.854;2023-03-15T10:50:54;101384.16;;;11.25;53.85
70229;BME280;57617;51.988;5.854;2023-03-15T10:53:20;101384.47;;;11.17;52.54
70229;BME280;57617;51.988;5.854;2023-03-15T10:55:47;101396.31;;;11.23;52.74
70229;BME280;57617;51.988;5.854;2023-03-15T11:00:48;101399.53;;;11.31;52.01
70229;BME280;57617;51.988;5.854;2023-03-15T11:03:20;101402.97;;;11.27;51.66
70229;BME280;57617;51.988;5.854;2023-03-15T11:05:48;101410.72;;;11.23;51.42
70229;BME280;57617;51.988;5.854;2023-03-15T11:08:17;101414.66;;;11.27;51.08
70229;BME280;57617;51.988;5.854;2023-03-15T11:10:44;101416.69;;;11.32;51.33
70229;BME280;57617;51.988;5.854;2023-03-15T11:13:17;101425.59;;;11.39;51.49
70229;BME280;57617;51.988;5.854;2023-03-15T11:15:54;101418.84;;;11.41;50.65
70229;BME280;57617;51.988;5.854;2023-03-15T11:18:28;101421.34;;;11.43;50.86
70229;BME280;57617;51.988;5.854;2023-03-15T11:20:55;101430.00;;;11.51;51.33
70229;BME280;57617;51.988;5.854;2023-03-15T11:23:27;101431.06;;;11.50;50.87
70229;BME280;57617;51.988;5.854;2023-03-15T11:25:53;101439.00;;;11.52;50.85
70229;BME280;57617;51.988;5.854;2023-03-15T11:28:22;101438.63;;;11.48;49.52
70229;BME280;57617;51.988;5.854;2023-03-15T11:30:48;101439.69;;;11.47;49.80
70229;BME280;57617;51.988;5.854;2023-03-15T11:33:28;101451.78;;;11.51;47.62
70229;BME280;57617;51.988;5.854;2023-03-15T11:35:58;101440.47;;;11.36;48.73
70229;BME280;57617;51.988;5.854;2023-03-15T11:38:40;101451.50;;;11.41;47.91
70229;BME280;57617;51.988;5.854;2023-03-15T11:44:17;101434.38;;;11.52;46.54
70229;BME280;57617;51.988;5.854;2023-03-15T11:46:49;101436.47;;;11.39;48.53
70229;BME280;57617;51.988;5.854;2023-03-15T11:49:34;101435.25;;;11.35;47.92
70229;BME280;57617;51.988;5.854;2023-03-15T11:52:02;101436.47;;;11.39;48.62
70229;BME280;57617;51.988;5.854;2023-03-15T11:54:28;101429.97;;;11.40;48.64
70229;BME280;57617;51.988;5.854;2023-03-15T11:57:01;101431.88;;;11.51;47.92
70229;BME280;57617;51.988;5.854;2023-03-15T11:59:32;101429.25;;;11.62;46.08
70229;BME280;57617;51.988;5.854;2023-03-15T12:09:39;101407.66;;;11.90;47.02
70229;BME280;57617;51.988;5.854;2023-03-15T12:20:12;101420.31;;;12.08;44.48
70229;BME280;57617;51.988;5.854;2023-03-15T12:25:43;101423.44;;;12.11;44.72
70229;BME280;57617;51.988;5.854;2023-03-15T12:28:08;101423.66;;;12.10;45.41
70229;BME280;57617;51.988;5.854;2023-03-15T12:30:43;101421.75;;;12.10;45.84
70229;BME280;57617;51.988;5.854;2023-03-15T12:33:14;101422.59;;;12.11;45.20
70229;BME280;57617;51.988;5.854;2023-03-15T12:35:41;101421.06;;;12.15;44.67
70229;BME280;57617;51.988;5.854;2023-03-15T12:38:19;101421.41;;;12.18;43.34
70229;BME280;57617;51.988;5.854;2023-03-15T12:40:52;101418.34;;;12.26;43.93
70229;BME280;57617;51.988;5.854;2023-03-15T12:46:03;101407.06;;;12.34;44.17
70229;BME280;57617;51.988;5.854;2023-03-15T12:48:29;101399.50;;;12.25;44.73
70229;BME280;57617;51.988;5.854;2023-03-15T12:50:58;101416.31;;;12.33;43.94
70229;BME280;57617;51.988;5.854;2023-03-15T12:58:45;101410.75;;;12.28;43.76
70229;BME280;57617;51.988;5.854;2023-03-15T13:01:13;101406.03;;;12.24;43.24
70229;BME280;57617;51.988;5.854;2023-03-15T13:03:41;101412.28;;;12.24;43.25
70229;BME280;57617;51.988;5.854;2023-03-15T13:09:35;101425.56;;;12.32;42.65
70229;BME280;57617;51.988;5.854;2023-03-15T13:12:12;101426.97;;;12.35;42.74
70229;BME280;57617;51.988;5.854;2023-03-15T13:14:58;101420.81;;;12.39;40.94
70229;BME280;57617;51.988;5.854;2023-03-15T13:17:42;101411.22;;;12.37;39.45
70229;BME280;57617;51.988;5.854;2023-03-15T13:20:28;101422.00;;;12.43;40.25
70229;BME280;57617;51.988;5.854;2023-03-15T13:23:15;101426.16;;;12.46;38.34
70229;BME280;57617;51.988;5.854;2023-03-15T13:28:34;101421.50;;;12.46;40.52
70229;BME280;57617;51.988;5.854;2023-03-15T13:31:10;101421.88;;;12.50;40.84
70229;BME280;57617;51.988;5.854;2023-03-15T13:33:37;101416.66;;;12.48;40.62
70229;BME280;57617;51.988;5.854;2023-03-15T13:36:08;101413.59;;;12.45;40.83
70229;BME280;57617;51.988;5.854;2023-03-15T13:41:04;101420.09;;;12.55;39.95
70229;BME280;57617;51.988;5.854;2023-03-15T13:43:35;101425.31;;;12.57;39.69
70229;BME280;57617;51.988;5.854;2023-03-15T13:46:01;101425.66;;;12.60;40.30
70229;BME280;57617;51.988;5.854;2023-03-15T13:48:29;101424.00;;;12.59;39.80
70229;BME280;57617;51.988;5.854;2023-03-15T13:53:53;101429.09;;;12.67;39.45
70229;BME280;57617;51.988;5.854;2023-03-15T13:56:27;101432.28;;;12.64;39.14
70229;BME280;57617;51.988;5.854;2023-03-15T13:58:53;101428.72;;;12.64;40.23
70229;BME280;57617;51.988;5.854;2023-03-15T14:01:20;101432.63;;;12.68;40.33